createdAt,value
2019-02-16T11:51:50.053Z,1013.64
2019-02-16T11:52:50.015Z,1013.72
2019-02-16T11:53:51.682Z,1013.70
2019-02-16T11:54:50.000Z,1013.66
2019-02-16T11:55:50.001Z,1013.69
2019-02-16T11:56:50.108Z,1013.72
2019-02-16T11:57:50.191Z,1013.72
2019-02-16T11:58:50.014Z,1013.73
2019-02-16T11:59:49.848Z,1013.69
2019-02-16T12:00:49.702Z,1013.72
2019-02-16T12:01:49.909Z,1013.74
2019-02-16T12:02:49.927Z,1013.72
2019-02-16T12:03:49.845Z,1013.69
2019-02-16T12:04:49.767Z,1013.76
2019-02-16T12:05:49.785Z,1013.71
2019-02-16T12:06:49.640Z,1013.69
2019-02-16T12:07:49.661Z,1013.64
2019-02-16T12:08:49.462Z,1013.64
2019-02-16T12:09:49.418Z,1013.63
2019-02-16T12:10:49.373Z,1013.58
2019-02-16T12:11:49.536Z,1013.62
2019-02-16T12:12:49.391Z,1013.57
2019-02-16T12:13:49.608Z,1013.58
2019-02-16T12:14:49.431Z,1013.53
2019-02-16T12:15:49.655Z,1013.52
2019-02-16T12:16:49.430Z,1013.59
2019-02-16T12:17:49.210Z,1013.55
2019-02-16T12:18:49.318Z,1013.61
2019-02-16T12:19:49.204Z,1013.57
2019-02-16T12:20:49.137Z,1013.54
2019-02-16T12:21:49.078Z,1013.55
2019-02-16T12:22:49.051Z,1013.52
2019-02-16T12:23:49.145Z,1013.53
2019-02-16T12:24:58.687Z,1013.55
2019-02-16T12:25:49.921Z,1013.47
2019-02-16T12:26:48.982Z,1013.50
2019-02-16T12:27:48.626Z,1013.48
2019-02-16T12:29:22.554Z,1013.49
2019-02-16T12:31:38.500Z,1013.49
2019-02-16T12:32:38.311Z,1013.44
2019-02-16T12:33:38.368Z,1013.44
2019-02-16T12:34:38.371Z,1013.49
2019-02-16T12:37:12.554Z,1013.39
2019-02-16T12:38:12.623Z,1013.42
2019-02-16T12:39:12.767Z,1013.43
2019-02-16T12:40:12.605Z,1013.42
2019-02-16T12:41:12.735Z,1013.45
2019-02-16T12:42:12.622Z,1013.46
2019-02-16T12:43:12.462Z,1013.47
2019-02-16T12:44:12.555Z,1013.50
2019-02-16T12:45:12.294Z,1013.50
2019-02-16T12:46:12.417Z,1013.50
2019-02-16T12:47:12.280Z,1013.50
2019-02-16T12:48:12.324Z,1013.47
2019-02-16T12:49:12.409Z,1013.51
2019-02-16T12:50:12.269Z,1013.49
2019-02-16T12:51:12.376Z,1013.56
2019-02-16T12:52:12.232Z,1013.48
2019-02-16T12:53:12.515Z,1013.43
2019-02-16T12:54:12.541Z,1013.49
2019-02-16T12:55:14.648Z,1013.42
2019-02-16T12:56:12.183Z,1013.50
2019-02-16T12:57:12.187Z,1013.51
2019-02-16T12:58:12.150Z,1013.51
2019-02-16T12:59:12.324Z,1013.45
2019-02-16T13:00:12.116Z,1013.44
2019-02-16T13:01:12.163Z,1013.42
2019-02-16T13:02:12.275Z,1013.43
2019-02-16T13:03:12.088Z,1013.43
2019-02-16T13:04:12.294Z,1013.32
2019-02-16T13:05:12.219Z,1013.35
2019-02-16T13:06:12.287Z,1013.33
2019-02-16T13:07:12.257Z,1013.30
2019-02-16T13:08:12.182Z,1013.27
2019-02-16T13:09:12.297Z,1013.19
2019-02-16T13:10:12.400Z,1013.19
2019-02-16T13:11:12.225Z,1013.19
2019-02-16T13:12:12.229Z,1013.14
2019-02-16T13:13:12.218Z,1013.24
2019-02-16T13:14:12.144Z,1013.21
2019-02-16T13:15:12.238Z,1013.16
2019-02-16T13:16:12.076Z,1013.18
2019-02-16T13:17:12.177Z,1013.14
2019-02-16T13:19:27.961Z,1013.13
2019-02-16T13:20:28.071Z,1013.13
2019-02-16T13:21:27.950Z,1013.15
2019-02-16T13:22:27.919Z,1013.15
2019-02-16T13:23:27.824Z,1013.04
2019-02-16T13:24:27.919Z,1013.10
2019-02-16T13:25:28.027Z,1013.09
2019-02-16T13:26:27.934Z,1013.06
2019-02-16T13:27:27.779Z,1013.00
2019-02-16T13:28:27.864Z,1013.08
2019-02-16T13:29:27.887Z,1013.06
2019-02-16T13:30:27.966Z,1013.01
2019-02-16T13:31:27.889Z,1013.06
2019-02-16T13:32:27.993Z,1013.04
2019-02-16T13:33:27.816Z,1013.01
2019-02-16T13:34:27.752Z,1012.98
2019-02-16T13:35:27.896Z,1012.98
2019-02-16T13:36:27.812Z,1013.09
2019-02-16T13:37:27.846Z,1013.00
2019-02-16T13:38:27.756Z,1012.99
2019-02-16T13:39:27.816Z,1013.05
2019-02-16T13:40:27.728Z,1013.07
2019-02-16T13:41:27.850Z,1013.02
2019-02-16T13:42:27.741Z,1013.07
2019-02-16T13:43:27.753Z,1013.07
2019-02-16T13:44:27.766Z,1013.09
2019-02-16T13:45:27.490Z,1013.08
2019-02-16T13:46:27.695Z,1013.08
2019-02-16T13:47:27.678Z,1013.09
2019-02-16T13:48:27.586Z,1013.03
2019-02-16T13:49:27.693Z,1013.01
2019-02-16T13:50:27.706Z,1013.05
2019-02-16T13:51:27.814Z,1013.07
2019-02-16T13:52:27.518Z,1013.05
2019-02-16T13:53:27.623Z,1013.07
2019-02-16T13:54:27.520Z,1013.07
2019-02-16T13:55:33.392Z,1013.03
2019-02-16T13:56:28.670Z,1013.04
2019-02-16T13:57:27.587Z,1013.07
2019-02-16T13:58:27.546Z,1013.03
2019-02-16T13:59:27.556Z,1013.08
2019-02-16T14:00:27.568Z,1013.03
2019-02-16T14:01:27.625Z,1013.05
2019-02-16T14:02:27.471Z,1012.97
2019-02-16T14:03:27.385Z,1012.97
2019-02-16T14:04:27.524Z,1012.90
2019-02-16T14:05:27.497Z,1012.97
2019-02-16T14:06:27.608Z,1012.87
2019-02-16T14:07:27.466Z,1012.97
2019-02-16T14:08:27.430Z,1012.94
2019-02-16T14:09:27.432Z,1012.95
2019-02-16T14:10:28.760Z,1012.98
2019-02-16T14:11:27.445Z,1012.96
2019-02-16T14:12:28.066Z,1012.96
2019-02-16T14:13:27.895Z,1012.98
2019-02-16T14:14:27.271Z,1012.97
2019-02-16T14:15:29.454Z,1012.91
2019-02-16T14:16:27.470Z,1012.95
2019-02-16T14:17:27.379Z,1012.88
2019-02-16T14:18:27.424Z,1012.90
2019-02-16T14:19:27.347Z,1012.93
2019-02-16T14:20:27.350Z,1012.92
2019-02-16T14:21:28.454Z,1012.92
2019-02-16T14:22:27.540Z,1012.95
2019-02-16T14:23:28.571Z,1012.86
2019-02-16T14:24:27.339Z,1012.87
2019-02-16T14:25:27.151Z,1012.92
2019-02-16T14:26:27.276Z,1012.95
2019-02-16T14:27:27.406Z,1012.94
2019-02-16T14:28:28.922Z,1012.97
2019-02-16T14:29:27.520Z,1012.96
2019-02-16T14:30:27.319Z,1012.94
2019-02-16T14:31:50.667Z,1012.90
2019-02-16T14:32:28.830Z,1012.91
2019-02-16T14:33:27.095Z,1012.89
2019-02-16T14:34:27.891Z,1012.86
2019-02-16T14:35:27.917Z,1012.90
2019-02-16T14:36:27.177Z,1012.86
2019-02-16T14:37:27.291Z,1012.82
2019-02-16T14:38:27.185Z,1012.85
2019-02-16T14:39:27.264Z,1012.80
2019-02-16T14:40:27.117Z,1012.84
2019-02-16T14:41:27.135Z,1012.81
2019-02-16T14:42:27.382Z,1012.87
2019-02-16T14:43:26.961Z,1012.86
2019-02-16T14:44:27.065Z,1012.93
2019-02-16T14:45:27.089Z,1012.89
2019-02-16T14:46:27.098Z,1012.97
